Time;durP1;ratioP1;P1;durP2;ratioP2;P2;SDS_P1;SDS_P2;PMS_P1;PMS_P2;Temp;Humidity;BMP_temperature;BMP_pressure;BME280_temperature;BME280_humidity;BME280_pressure;Samples;Min_cycle;Max_cycle;Signal;HPM_P1;HPM_P2
2022/03/14 00:02:17;;;;;;;20.35;11.18;;;;;;;;;;5003482;28;20459;-82
2022/03/14 00:04:43;;;;;;;16.88;10.50;;;;;;;;;;4982851;28;20636;-82
2022/03/14 00:07:11;;;;;;;21.77;11.57;;;;;;;;;;4985303;28;20036;-82
2022/03/14 00:09:37;;;;;;;19.38;10.60;;;;;;;;;;4986370;28;20018;-82
2022/03/14 00:12:05;;;;;;;24.70;11.85;;;;;;;;;;4988585;28;20160;-82
2022/03/14 00:14:31;;;;;;;19.17;10.70;;;;;;;;;;4983452;28;20038;-82
2022/03/14 00:16:59;;;;;;;21.13;10.77;;;;;;;;;;4986006;28;20577;-83
2022/03/14 00:19:25;;;;;;;21.85;11.45;;;;;;;;;;4999054;28;20601;-83
2022/03/14 00:21:51;;;;;;;19.45;10.60;;;;;;;;;;4987678;28;20030;-82
2022/03/14 00:24:17;;;;;;;26.05;11.63;;;;;;;;;;4987817;28;20089;-82
2022/03/14 00:26:43;;;;;;;23.95;12.00;;;;;;;;;;4986133;28;20474;-83
2022/03/14 00:29:09;;;;;;;23.77;12.32;;;;;;;;;;5002294;28;20531;-82
2022/03/14 00:31:42;;;;;;;20.27;10.98;;;;;;;;;;4999973;28;20045;-82
2022/03/14 00:34:09;;;;;;;23.48;11.85;;;;;;;;;;4989619;28;20021;-83
2022/03/14 00:36:35;;;;;;;27.98;12.50;;;;;;;;;;4985052;28;20027;-83
2022/03/14 00:39:01;;;;;;;20.23;11.10;;;;;;;;;;5000519;28;20033;-82
2022/03/14 00:41:27;;;;;;;19.85;11.07;;;;;;;;;;4985933;28;20564;-82
2022/03/14 00:43:54;;;;;;;24.48;10.90;;;;;;;;;;4984693;28;20029;-82
2022/03/14 00:46:20;;;;;;;24.80;12.75;;;;;;;;;;4999078;28;20023;-82
2022/03/14 00:48:47;;;;;;;21.33;11.20;;;;;;;;;;4982566;28;20784;-82
2022/03/14 00:51:13;;;;;;;22.98;11.02;;;;;;;;;;5001409;28;20034;-82
2022/03/14 00:53:39;;;;;;;21.17;11.30;;;;;;;;;;4987498;28;20077;-82
2022/03/14 00:56:09;;;;;;;25.77;11.98;;;;;;;;;;4996949;28;20030;-82
2022/03/14 00:58:36;;;;;;;20.13;10.80;;;;;;;;;;4998431;28;20037;-82
2022/03/14 01:01:03;;;;;;;26.77;11.20;;;;;;;;;;5000323;28;20132;-82
2022/03/14 01:03:29;;;;;;;33.47;12.20;;;;;;;;;;4980157;28;20049;-82
2022/03/14 01:05:55;;;;;;;25.40;11.10;;;;;;;;;;4984660;28;20026;-82
2022/03/14 01:08:21;;;;;;;23.73;12.10;;;;;;;;;;4987972;28;20025;-82
2022/03/14 01:10:48;;;;;;;21.85;11.13;;;;;;;;;;4998225;28;20502;-83
2022/03/14 01:13:14;;;;;;;19.95;10.43;;;;;;;;;;4986224;28;20026;-82
2022/03/14 01:15:40;;;;;;;23.48;12.25;;;;;;;;;;4985918;28;20092;-82
2022/03/14 01:18:06;;;;;;;23.17;10.18;;;;;;;;;;5006070;28;20413;-82
2022/03/14 01:20:33;;;;;;;23.13;11.32;;;;;;;;;;4985383;28;20474;-83
2022/03/14 01:22:59;;;;;;;24.50;11.02;;;;;;;;;;5000081;28;20030;-82
2022/03/14 01:25:28;;;;;;;22.63;12.07;;;;;;;;;;5001092;28;20478;-83
2022/03/14 01:27:55;;;;;;;22.77;11.07;;;;;;;;;;4999014;28;20442;-83
2022/03/14 01:30:21;;;;;;;21.55;12.35;;;;;;;;;;4985841;28;20026;-83
2022/03/14 01:32:48;;;;;;;24.05;11.85;;;;;;;;;;5005405;28;20397;-82
2022/03/14 01:35:14;;;;;;;24.02;12.32;;;;;;;;;;4987591;28;20501;-83
2022/03/14 01:37:40;;;;;;;24.02;11.65;;;;;;;;;;4986725;28;20038;-82
2022/03/14 01:40:09;;;;;;;22.42;11.93;;;;;;;;;;5007506;28;21076;-83
2022/03/14 01:42:35;;;;;;;25.23;11.85;;;;;;;;;;4980951;28;20022;-83
2022/03/14 01:45:01;;;;;;;20.02;11.25;;;;;;;;;;5003906;28;20185;-82
2022/03/14 01:47:30;;;;;;;24.40;12.27;;;;;;;;;;4984221;28;20044;-83
2022/03/14 01:49:56;;;;;;;26.20;12.40;;;;;;;;;;4996318;28;20034;-83
2022/03/14 01:52:22;;;;;;;22.38;12.18;;;;;;;;;;4982686;28;20093;-83
2022/03/14 01:54:49;;;;;;;21.67;11.48;;;;;;;;;;4991038;28;20512;-83
2022/03/14 01:57:15;;;;;;;23.58;12.00;;;;;;;;;;4989077;28;20120;-82
2022/03/14 01:59:42;;;;;;;21.05;12.75;;;;;;;;;;5001073;28;20041;-82
2022/03/14 02:02:08;;;;;;;31.92;11.20;;;;;;;;;;4999996;28;20049;-83
2022/03/14 02:04:40;;;;;;;22.83;11.27;;;;;;;;;;4984484;28;20048;-82
2022/03/14 02:07:06;;;;;;;22.80;11.80;;;;;;;;;;4985570;28;20084;-82
2022/03/14 02:09:32;;;;;;;22.80;11.55;;;;;;;;;;4999114;28;20105;-83
2022/03/14 02:12:00;;;;;;;23.55;12.15;;;;;;;;;;4982474;28;20036;-82
2022/03/14 02:14:26;;;;;;;22.38;11.18;;;;;;;;;;4979687;28;20046;-83
2022/03/14 02:16:59;;;;;;;23.77;12.10;;;;;;;;;;4982785;28;20028;-83
2022/03/14 02:19:25;;;;;;;22.08;12.00;;;;;;;;;;4981704;28;20022;-82
2022/03/14 02:21:51;;;;;;;21.40;11.55;;;;;;;;;;4983817;28;20036;-82
2022/03/14 02:24:17;;;;;;;21.05;11.65;;;;;;;;;;4983190;28;20096;-82
2022/03/14 02:26:44;;;;;;;24.27;11.25;;;;;;;;;;5001718;28;20470;-82
2022/03/14 02:29:11;;;;;;;24.50;11.40;;;;;;;;;;4984056;28;20485;-82
2022/03/14 02:31:42;;;;;;;21.42;10.63;;;;;;;;;;4998553;28;20129;-83
2022/03/14 02:34:08;;;;;;;17.65;10.55;;;;;;;;;;5001801;28;20138;-82
2022/03/14 02:36:39;;;;;;;19.08;11.20;;;;;;;;;;4982492;28;20032;-82
2022/03/14 02:39:06;;;;;;;20.38;11.15;;;;;;;;;;4981552;28;20125;-82
2022/03/14 02:41:32;;;;;;;22.80;11.52;;;;;;;;;;4980732;28;20052;-82
2022/03/14 02:43:59;;;;;;;27.58;11.48;;;;;;;;;;4982994;28;20031;-83
2022/03/14 02:46:25;;;;;;;20.42;10.30;;;;;;;;;;5002254;28;20029;-82
2022/03/14 02:48:51;;;;;;;21.65;10.95;;;;;;;;;;4982771;28;20029;-82
2022/03/14 02:51:18;;;;;;;20.50;11.65;;;;;;;;;;4985386;28;20030;-82
2022/03/14 02:53:43;;;;;;;22.98;10.85;;;;;;;;;;5000103;28;20094;-82
2022/03/14 02:56:10;;;;;;;24.55;12.02;;;;;;;;;;4998375;28;20078;-82
2022/03/14 02:58:39;;;;;;;21.27;10.43;;;;;;;;;;4983441;28;20030;-82
2022/03/14 03:01:05;;;;;;;21.02;12.57;;;;;;;;;;4999578;28;20034;-82
2022/03/14 03:03:33;;;;;;;29.48;11.68;;;;;;;;;;4979951;28;20031;-82
2022/03/14 03:05:59;;;;;;;19.90;11.27;;;;;;;;;;4974621;28;20061;-82
2022/03/14 03:08:25;;;;;;;18.17;10.90;;;;;;;;;;4984549;28;20383;-82
2022/03/14 03:10:56;;;;;;;20.67;11.45;;;;;;;;;;4982408;28;20034;-82
2022/03/14 03:13:22;;;;;;;19.45;11.00;;;;;;;;;;4988660;28;20029;-82
2022/03/14 03:15:48;;;;;;;19.08;11.07;;;;;;;;;;5004343;28;20069;-82
2022/03/14 03:18:14;;;;;;;21.17;11.27;;;;;;;;;;4992527;28;20069;-82
2022/03/14 03:20:40;;;;;;;19.90;11.50;;;;;;;;;;5003567;28;20041;-82
2022/03/14 03:23:06;;;;;;;24.27;11.75;;;;;;;;;;5003642;28;20033;-82
2022/03/14 03:25:32;;;;;;;23.23;11.40;;;;;;;;;;5003599;28;20077;-82
2022/03/14 03:27:58;;;;;;;21.30;10.52;;;;;;;;;;4994754;28;20029;-82
2022/03/14 03:30:24;;;;;;;21.48;10.05;;;;;;;;;;4985801;28;20085;-82
2022/03/14 03:32:50;;;;;;;19.58;10.32;;;;;;;;;;4984694;28;21409;-82
2022/03/14 03:35:16;;;;;;;16.35;9.68;;;;;;;;;;4988355;28;20072;-82
2022/03/14 03:37:42;;;;;;;21.65;9.63;;;;;;;;;;5001115;28;20030;-82
2022/03/14 03:40:09;;;;;;;19.38;9.63;;;;;;;;;;4986548;28;20033;-82
2022/03/14 03:42:35;;;;;;;19.85;9.85;;;;;;;;;;4998341;28;20026;-82
2022/03/14 03:45:01;;;;;;;20.88;10.23;;;;;;;;;;4984587;28;20108;-82
2022/03/14 03:47:27;;;;;;;15.70;9.23;;;;;;;;;;5002821;28;20037;-82
2022/03/14 03:49:53;;;;;;;19.08;10.00;;;;;;;;;;4985663;28;20034;-82
2022/03/14 03:52:19;;;;;;;17.83;9.93;;;;;;;;;;4988951;28;20393;-82
2022/03/14 03:54:45;;;;;;;19.52;10.15;;;;;;;;;;4985768;28;20572;-82
2022/03/14 03:57:12;;;;;;;16.80;9.75;;;;;;;;;;4988152;28;20033;-82
2022/03/14 03:59:39;;;;;;;18.40;9.18;;;;;;;;;;4986579;28;20602;-82
2022/03/14 04:02:08;;;;;;;16.92;9.77;;;;;;;;;;4989038;28;20671;-82
2022/03/14 04:04:36;;;;;;;19.98;10.10;;;;;;;;;;5003039;28;20057;-82
2022/03/14 04:07:04;;;;;;;17.88;9.30;;;;;;;;;;4988108;28;20036;-82
2022/03/14 04:09:30;;;;;;;15.25;9.02;;;;;;;;;;4986082;28;20104;-82
2022/03/14 04:11:56;;;;;;;16.08;8.93;;;;;;;;;;5000523;28;20040;-82
2022/03/14 04:14:22;;;;;;;18.35;9.23;;;;;;;;;;5003458;28;20401;-82
2022/03/14 04:16:48;;;;;;;14.98;8.45;;;;;;;;;;4986437;28;20036;-82
2022/03/14 04:19:16;;;;;;;18.10;8.98;;;;;;;;;;4986470;28;20036;-82
2022/03/14 04:21:44;;;;;;;17.70;9.02;;;;;;;;;;4980556;28;20041;-82
2022/03/14 04:24:10;;;;;;;16.00;8.65;;;;;;;;;;4984090;28;20050;-82
2022/03/14 04:26:36;;;;;;;16.05;9.20;;;;;;;;;;4986617;28;20077;-82
2022/03/14 04:29:02;;;;;;;16.13;8.57;;;;;;;;;;4984163;28;20034;-82
2022/03/14 04:31:28;;;;;;;14.95;8.57;;;;;;;;;;4998131;28;20042;-82
2022/03/14 04:33:55;;;;;;;12.63;7.18;;;;;;;;;;4983502;28;20022;-82
2022/03/14 04:36:21;;;;;;;18.00;7.63;;;;;;;;;;4965299;28;20030;-82
2022/03/14 04:38:47;;;;;;;14.60;7.53;;;;;;;;;;4983244;28;20038;-82
2022/03/14 04:41:14;;;;;;;11.77;6.82;;;;;;;;;;4967274;28;20034;-82
2022/03/14 04:43:40;;;;;;;8.95;5.72;;;;;;;;;;4969621;28;20038;-82
2022/03/14 04:46:06;;;;;;;13.13;6.43;;;;;;;;;;4981869;28;20692;-82
2022/03/14 04:48:32;;;;;;;14.32;6.55;;;;;;;;;;4981057;28;20022;-82
2022/03/14 04:50:58;;;;;;;9.32;5.63;;;;;;;;;;4971102;28;20082;-82
2022/03/14 04:53:24;;;;;;;9.77;5.70;;;;;;;;;;4968254;28;20033;-83
2022/03/14 04:55:50;;;;;;;10.63;6.03;;;;;;;;;;4965852;28;20044;-82
2022/03/14 04:58:17;;;;;;;10.13;5.65;;;;;;;;;;4969295;28;20030;-82
2022/03/14 05:00:44;;;;;;;11.30;5.85;;;;;;;;;;4985546;28;20453;-82
2022/03/14 05:03:11;;;;;;;11.38;5.57;;;;;;;;;;4981317;28;20490;-82
2022/03/14 05:05:37;;;;;;;9.55;5.60;;;;;;;;;;4982696;28;20038;-82
2022/03/14 05:08:04;;;;;;;7.97;4.40;;;;;;;;;;4971863;28;20767;-82
2022/03/14 05:10:30;;;;;;;10.20;5.60;;;;;;;;;;4982940;28;20037;-82
2022/03/14 05:12:59;;;;;;;8.10;4.93;;;;;;;;;;4968643;28;20432;-82
2022/03/14 05:15:25;;;;;;;11.45;5.65;;;;;;;;;;4980842;28;20038;-82
2022/03/14 05:17:51;;;;;;;11.55;5.32;;;;;;;;;;4969590;28;20034;-82
2022/03/14 05:20:17;;;;;;;9.85;5.60;;;;;;;;;;4969508;28;20081;-82
2022/03/14 05:22:43;;;;;;;8.77;4.90;;;;;;;;;;4982318;28;20057;-82
2022/03/14 05:25:10;;;;;;;8.07;4.57;;;;;;;;;;4981427;28;20034;-82
2022/03/14 05:27:44;;;;;;;12.15;5.30;;;;;;;;;;4978312;28;20086;-82
2022/03/14 05:30:10;;;;;;;8.10;4.97;;;;;;;;;;4981650;28;20058;-82
2022/03/14 05:32:44;;;;;;;8.13;5.03;;;;;;;;;;4978433;28;20493;-82
2022/03/14 05:35:17;;;;;;;7.32;4.75;;;;;;;;;;4964266;28;20436;-82
2022/03/14 05:37:43;;;;;;;8.10;4.70;;;;;;;;;;4978081;28;20417;-82
2022/03/14 05:40:10;;;;;;;7.43;4.40;;;;;;;;;;4981908;28;20033;-82
2022/03/14 05:42:37;;;;;;;7.97;4.70;;;;;;;;;;4960816;28;20514;-82
2022/03/14 05:45:04;;;;;;;10.30;4.68;;;;;;;;;;4979925;28;20090;-82
2022/03/14 05:47:30;;;;;;;9.35;5.20;;;;;;;;;;4979080;28;20026;-82
2022/03/14 05:49:56;;;;;;;7.85;4.72;;;;;;;;;;4981816;28;20044;-82
2022/03/14 05:52:22;;;;;;;7.32;4.70;;;;;;;;;;4965138;28;20501;-82
2022/03/14 05:54:48;;;;;;;9.45;4.70;;;;;;;;;;4963582;28;20062;-82
2022/03/14 05:57:15;;;;;;;8.07;5.03;;;;;;;;;;4968721;28;20478;-82
2022/03/14 05:59:41;;;;;;;10.23;5.28;;;;;;;;;;4965446;28;20378;-82
2022/03/14 06:02:07;;;;;;;7.30;4.75;;;;;;;;;;4965617;28;20359;-82
2022/03/14 06:04:33;;;;;;;8.35;4.85;;;;;;;;;;4977132;28;20033;-82
2022/03/14 06:06:59;;;;;;;11.50;5.13;;;;;;;;;;4963812;28;20030;-82
2022/03/14 06:09:25;;;;;;;7.82;4.75;;;;;;;;;;4961357;28;20029;-83
2022/03/14 06:11:52;;;;;;;8.20;5.03;;;;;;;;;;4965209;28;20057;-82
2022/03/14 06:14:18;;;;;;;7.32;5.00;;;;;;;;;;4977661;28;20041;-81
2022/03/14 06:16:44;;;;;;;6.90;4.70;;;;;;;;;;4964748;28;20513;-82
2022/03/14 06:19:10;;;;;;;9.00;5.32;;;;;;;;;;4963039;28;20500;-82
2022/03/14 06:21:38;;;;;;;6.53;4.45;;;;;;;;;;4964793;28;20026;-82
2022/03/14 06:24:05;;;;;;;11.25;5.18;;;;;;;;;;4965713;28;20124;-82
2022/03/14 06:26:34;;;;;;;9.48;5.05;;;;;;;;;;4978174;28;20841;-83
2022/03/14 06:29:00;;;;;;;9.55;5.43;;;;;;;;;;4982116;28;20057;-83
2022/03/14 06:31:26;;;;;;;11.32;4.50;;;;;;;;;;4978911;28;20033;-83
2022/03/14 06:33:52;;;;;;;13.35;5.25;;;;;;;;;;4996214;28;20053;-83
2022/03/14 06:36:19;;;;;;;8.65;5.50;;;;;;;;;;5002081;28;20037;-82
2022/03/14 06:38:45;;;;;;;8.23;4.75;;;;;;;;;;4984977;28;20030;-83
2022/03/14 06:41:12;;;;;;;7.47;4.53;;;;;;;;;;4999995;28;20583;-83
2022/03/14 06:43:39;;;;;;;8.85;4.85;;;;;;;;;;4998599;28;20061;-84
2022/03/14 06:46:05;;;;;;;7.80;4.38;;;;;;;;;;4997959;28;20092;-84
2022/03/14 06:48:31;;;;;;;7.18;4.78;;;;;;;;;;4983268;28;20076;-84
2022/03/14 06:50:57;;;;;;;9.70;5.93;;;;;;;;;;4997347;28;20804;-84
2022/03/14 06:53:23;;;;;;;9.35;5.25;;;;;;;;;;4980949;28;20545;-84
2022/03/14 06:55:49;;;;;;;7.15;4.82;;;;;;;;;;4984318;28;20030;-84
2022/03/14 06:58:15;;;;;;;8.27;4.60;;;;;;;;;;5001859;28;20027;-84
2022/03/14 07:00:42;;;;;;;8.23;4.40;;;;;;;;;;4997511;28;20053;-84
2022/03/14 07:03:08;;;;;;;8.93;4.80;;;;;;;;;;5000389;28;20123;-84
2022/03/14 07:05:34;;;;;;;8.20;4.95;;;;;;;;;;4997105;28;20037;-84
2022/03/14 07:08:00;;;;;;;12.80;4.55;;;;;;;;;;4979103;28;20061;-83
2022/03/14 07:10:26;;;;;;;7.05;4.45;;;;;;;;;;5000329;28;20057;-84
2022/03/14 07:12:52;;;;;;;7.70;4.10;;;;;;;;;;4983564;28;20777;-84
2022/03/14 07:15:21;;;;;;;7.25;4.28;;;;;;;;;;4994678;28;20092;-84
2022/03/14 07:17:48;;;;;;;6.88;3.85;;;;;;;;;;4983302;28;20383;-84
2022/03/14 07:20:14;;;;;;;9.32;4.25;;;;;;;;;;4983400;28;20033;-83
2022/03/14 07:22:52;;;;;;;6.57;4.38;;;;;;;;;;4997902;28;20446;-83
2022/03/14 07:25:19;;;;;;;11.10;3.63;;;;;;;;;;4997741;28;20446;-83
2022/03/14 07:27:46;;;;;;;7.85;4.22;;;;;;;;;;4998648;28;20049;-82
2022/03/14 07:30:14;;;;;;;10.10;4.93;;;;;;;;;;4983602;28;20030;-82
2022/03/14 07:32:40;;;;;;;8.98;4.53;;;;;;;;;;4996314;28;20150;-83
2022/03/14 07:35:07;;;;;;;8.55;4.38;;;;;;;;;;4977745;28;20073;-83
2022/03/14 07:37:33;;;;;;;8.90;5.03;;;;;;;;;;4983187;28;20030;-82
2022/03/14 07:39:59;;;;;;;8.27;4.80;;;;;;;;;;4981799;28;20038;-82
2022/03/14 07:42:25;;;;;;;8.60;4.88;;;;;;;;;;4982289;28;20038;-82
2022/03/14 07:44:51;;;;;;;9.10;3.72;;;;;;;;;;4981701;28;20039;-82
2022/03/14 07:47:17;;;;;;;8.48;4.93;;;;;;;;;;4999082;28;20033;-82
2022/03/14 07:49:44;;;;;;;8.00;4.50;;;;;;;;;;4992997;28;20112;-81
2022/03/14 07:52:11;;;;;;;8.15;4.53;;;;;;;;;;5001551;28;20018;-81
2022/03/14 07:54:38;;;;;;;12.57;5.45;;;;;;;;;;4994081;28;20041;-81
2022/03/14 07:57:04;;;;;;;8.35;5.07;;;;;;;;;;4980613;28;20072;-81
2022/03/14 07:59:30;;;;;;;7.75;5.28;;;;;;;;;;4980014;28;20032;-81
2022/03/14 08:01:56;;;;;;;9.27;4.78;;;;;;;;;;4997626;28;20030;-81
2022/03/14 08:04:23;;;;;;;17.17;5.65;;;;;;;;;;5004246;28;20080;-81
2022/03/14 08:06:49;;;;;;;8.90;4.82;;;;;;;;;;4998387;28;20456;-81
2022/03/14 08:09:18;;;;;;;12.23;5.07;;;;;;;;;;4999090;28;20092;-81
2022/03/14 08:11:44;;;;;;;9.55;6.00;;;;;;;;;;4990132;28;20598;-81
2022/03/14 08:14:10;;;;;;;11.43;5.25;;;;;;;;;;5000359;28;20026;-81
2022/03/14 08:16:36;;;;;;;10.00;5.70;;;;;;;;;;5000226;28;20096;-81
2022/03/14 08:19:03;;;;;;;10.18;5.05;;;;;;;;;;5001020;28;20489;-81
2022/03/14 08:21:29;;;;;;;10.63;5.45;;;;;;;;;;5000994;28;20041;-81
2022/03/14 08:23:58;;;;;;;12.38;4.72;;;;;;;;;;4999229;28;20095;-81
2022/03/14 08:26:27;;;;;;;17.83;5.32;;;;;;;;;;5000190;28;20073;-81
2022/03/14 08:28:53;;;;;;;13.43;5.82;;;;;;;;;;5001194;28;20046;-81
2022/03/14 08:31:21;;;;;;;8.93;5.78;;;;;;;;;;4998163;28;20038;-81
2022/03/14 08:33:47;;;;;;;14.05;6.30;;;;;;;;;;5000652;28;20104;-81
2022/03/14 08:36:13;;;;;;;10.63;5.85;;;;;;;;;;4983404;28;20033;-81
2022/03/14 08:38:40;;;;;;;12.20;5.60;;;;;;;;;;4986679;28;20061;-81
2022/03/14 08:41:07;;;;;;;10.35;5.60;;;;;;;;;;4986336;28;20030;-81
2022/03/14 08:43:33;;;;;;;8.82;5.97;;;;;;;;;;4983116;28;20100;-81
2022/03/14 08:45:59;;;;;;;8.55;5.13;;;;;;;;;;4985067;28;20049;-81
2022/03/14 08:48:25;;;;;;;14.27;5.53;;;;;;;;;;5000438;28;20804;-81
2022/03/14 08:50:51;;;;;;;12.65;6.40;;;;;;;;;;4982047;28;20054;-81
2022/03/14 08:53:17;;;;;;;18.00;5.65;;;;;;;;;;4997569;28;20032;-81
2022/03/14 08:55:44;;;;;;;10.05;5.93;;;;;;;;;;5004444;28;20060;-81
2022/03/14 08:58:10;;;;;;;14.38;5.95;;;;;;;;;;4985325;28;20222;-81
2022/03/14 09:00:36;;;;;;;14.38;7.35;;;;;;;;;;4991399;28;20068;-81
2022/03/14 09:03:02;;;;;;;8.57;5.22;;;;;;;;;;4996907;28;21914;-81
2022/03/14 09:05:28;;;;;;;14.57;6.75;;;;;;;;;;4985210;28;20054;-81
2022/03/14 09:07:54;;;;;;;11.40;5.47;;;;;;;;;;4985403;28;20064;-81
2022/03/14 09:10:21;;;;;;;12.13;6.03;;;;;;;;;;4986750;28;20777;-81
2022/03/14 09:12:47;;;;;;;10.82;5.63;;;;;;;;;;4985161;28;20649;-80
2022/03/14 09:15:13;;;;;;;10.43;5.50;;;;;;;;;;5002865;28;20030;-80
2022/03/14 09:17:47;;;;;;;10.65;5.43;;;;;;;;;;4986988;28;20393;-81
2022/03/14 09:20:15;;;;;;;9.55;5.75;;;;;;;;;;4984927;28;20052;-80
2022/03/14 09:22:43;;;;;;;10.25;6.47;;;;;;;;;;5000193;28;20121;-81
2022/03/14 09:25:18;;;;;;;9.68;5.90;;;;;;;;;;4985968;28;20093;-81
2022/03/14 09:27:48;;;;;;;10.80;6.13;;;;;;;;;;4998210;28;20264;-81
2022/03/14 09:30:15;;;;;;;11.52;6.15;;;;;;;;;;4980740;28;20038;-81
2022/03/14 09:32:55;;;;;;;9.65;6.40;;;;;;;;;;4983724;28;20044;-81
2022/03/14 09:35:23;;;;;;;7.60;4.43;;;;;;;;;;5000162;28;20029;-80
2022/03/14 09:37:49;;;;;;;10.65;6.75;;;;;;;;;;4997230;28;20703;-81
2022/03/14 09:40:17;;;;;;;12.75;6.68;;;;;;;;;;4983003;28;20022;-81
2022/03/14 09:42:44;;;;;;;12.85;6.25;;;;;;;;;;5000256;28;20049;-81
2022/03/14 09:45:11;;;;;;;11.38;5.97;;;;;;;;;;5000399;28;20026;-81
2022/03/14 09:47:39;;;;;;;11.70;7.03;;;;;;;;;;5004251;28;20519;-81
2022/03/14 09:50:09;;;;;;;14.00;6.68;;;;;;;;;;4980733;28;20026;-81
2022/03/14 09:52:37;;;;;;;13.00;7.75;;;;;;;;;;5001940;28;20026;-81
2022/03/14 09:55:05;;;;;;;13.35;7.05;;;;;;;;;;4999639;28;20535;-81
2022/03/14 09:57:31;;;;;;;17.05;5.50;;;;;;;;;;4985506;28;20133;-81
2022/03/14 09:59:58;;;;;;;15.23;8.68;;;;;;;;;;4980079;28;20037;-81
2022/03/14 10:02:24;;;;;;;15.27;9.07;;;;;;;;;;4984949;28;20048;-81
2022/03/14 10:04:50;;;;;;;15.60;8.63;;;;;;;;;;4998066;28;20049;-81
2022/03/14 10:07:17;;;;;;;18.55;8.45;;;;;;;;;;4984380;28;20049;-81
2022/03/14 10:09:43;;;;;;;13.63;7.88;;;;;;;;;;4995614;28;20041;-81
2022/03/14 10:12:10;;;;;;;14.65;8.15;;;;;;;;;;4985914;28;20717;-81
2022/03/14 10:14:36;;;;;;;14.93;7.53;;;;;;;;;;4997235;28;20121;-81
2022/03/14 10:17:02;;;;;;;17.20;9.23;;;;;;;;;;5000831;28;20038;-81
2022/03/14 10:19:34;;;;;;;15.68;8.38;;;;;;;;;;4980786;28;20037;-81
2022/03/14 10:22:14;;;;;;;24.25;10.60;;;;;;;;;;4982088;28;20136;-80
2022/03/14 10:24:40;;;;;;;14.80;7.00;;;;;;;;;;4981622;28;20073;-80
2022/03/14 10:27:07;;;;;;;20.33;10.40;;;;;;;;;;4984211;28;20029;-80
2022/03/14 10:29:33;;;;;;;24.73;9.95;;;;;;;;;;4984939;28;20026;-80
2022/03/14 10:32:00;;;;;;;24.15;11.00;;;;;;;;;;4979734;28;20505;-80
2022/03/14 10:34:39;;;;;;;26.15;11.68;;;;;;;;;;5001410;28;22139;-80
2022/03/14 10:37:12;;;;;;;23.48;10.88;;;;;;;;;;4977602;28;20022;-80
2022/03/14 10:39:39;;;;;;;21.70;10.98;;;;;;;;;;4985965;28;20022;-80
2022/03/14 10:42:09;;;;;;;23.27;10.35;;;;;;;;;;4980450;28;20486;-80
2022/03/14 10:44:36;;;;;;;25.00;11.07;;;;;;;;;;4985045;28;20030;-80
2022/03/14 10:47:04;;;;;;;21.92;11.25;;;;;;;;;;4995557;28;20457;-81
2022/03/14 10:49:31;;;;;;;23.77;10.60;;;;;;;;;;4994326;28;20841;-80
2022/03/14 10:51:58;;;;;;;21.77;8.40;;;;;;;;;;4983688;28;20369;-80
2022/03/14 10:54:25;;;;;;;30.48;10.65;;;;;;;;;;4996921;28;20466;-80
2022/03/14 10:57:21;;;;;;;24.77;10.02;;;;;;;;;;4995946;28;20040;-81
2022/03/14 10:59:48;;;;;;;22.87;10.07;;;;;;;;;;4963856;28;20619;-80
2022/03/14 11:02:17;;;;;;;17.30;7.85;;;;;;;;;;4983730;28;20036;-81
2022/03/14 11:05:03;;;;;;;25.17;9.90;;;;;;;;;;4981758;28;20058;-81
2022/03/14 11:07:32;;;;;;;23.83;9.85;;;;;;;;;;4998728;28;20114;-81
2022/03/14 11:09:59;;;;;;;25.52;9.20;;;;;;;;;;4986399;28;20037;-80
2022/03/14 11:12:27;;;;;;;19.67;7.35;;;;;;;;;;4983992;28;20464;-80
2022/03/14 11:14:55;;;;;;;26.63;10.20;;;;;;;;;;4984970;28;20040;-81
2022/03/14 11:17:22;;;;;;;33.25;10.23;;;;;;;;;;5000492;28;20041;-81
2022/03/14 11:19:48;;;;;;;22.13;9.18;;;;;;;;;;4980823;28;20581;-80
2022/03/14 11:22:15;;;;;;;28.40;8.20;;;;;;;;;;4997526;28;20096;-81
2022/03/14 11:24:43;;;;;;;30.33;8.18;;;;;;;;;;4982992;28;20404;-81
2022/03/14 11:27:18;;;;;;;22.08;8.02;;;;;;;;;;4987143;28;20022;-81
2022/03/14 11:29:44;;;;;;;26.85;9.13;;;;;;;;;;4987555;28;20064;-81
2022/03/14 11:32:10;;;;;;;26.67;8.93;;;;;;;;;;4978667;28;20039;-80
2022/03/14 11:34:37;;;;;;;32.35;10.85;;;;;;;;;;4995272;28;20394;-81
2022/03/14 11:37:03;;;;;;;26.00;9.80;;;;;;;;;;4978765;28;20022;-81
2022/03/14 11:39:29;;;;;;;21.05;7.72;;;;;;;;;;5002015;28;20515;-81
2022/03/14 11:41:55;;;;;;;21.40;8.07;;;;;;;;;;4986654;28;20752;-81
2022/03/14 11:44:22;;;;;;;30.20;7.88;;;;;;;;;;4985954;28;20389;-81
2022/03/14 11:46:49;;;;;;;27.63;9.27;;;;;;;;;;4986006;28;20041;-81
2022/03/14 11:49:18;;;;;;;26.95;8.77;;;;;;;;;;5002960;28;20073;-81
2022/03/14 11:51:45;;;;;;;28.48;9.43;;;;;;;;;;4998852;28;20073;-81
2022/03/14 11:54:12;;;;;;;24.35;8.80;;;;;;;;;;4982213;28;20432;-81
2022/03/14 11:56:38;;;;;;;22.17;8.52;;;;;;;;;;4986227;28;20100;-80
2022/03/14 11:59:09;;;;;;;18.75;7.32;;;;;;;;;;4999775;28;20145;-81
2022/03/14 12:01:35;;;;;;;27.40;8.88;;;;;;;;;;5000091;28;20080;-81
2022/03/14 12:04:10;;;;;;;24.70;10.05;;;;;;;;;;5001742;28;20026;-81
2022/03/14 12:06:49;;;;;;;23.52;8.85;;;;;;;;;;4996075;28;20129;-81
2022/03/14 12:09:27;;;;;;;24.20;7.88;;;;;;;;;;5000777;28;20018;-80
2022/03/14 12:12:20;;;;;;;27.05;8.65;;;;;;;;;;4983976;28;20049;-81
2022/03/14 12:14:47;;;;;;;27.33;8.00;;;;;;;;;;4984742;28;20068;-81
2022/03/14 12:17:14;;;;;;;20.10;7.47;;;;;;;;;;5005108;28;20029;-81
2022/03/14 12:19:42;;;;;;;22.05;7.85;;;;;;;;;;4988390;28;20638;-81
2022/03/14 12:22:12;;;;;;;15.70;6.90;;;;;;;;;;5003147;28;20524;-81
2022/03/14 12:24:38;;;;;;;21.90;5.88;;;;;;;;;;5000893;28;20026;-81
2022/03/14 12:27:14;;;;;;;20.55;7.88;;;;;;;;;;4983529;28;20437;-81
2022/03/14 12:29:40;;;;;;;20.35;8.32;;;;;;;;;;4980431;28;20616;-80
2022/03/14 12:32:25;;;;;;;25.25;8.10;;;;;;;;;;4998811;28;20627;-80
2022/03/14 12:35:04;;;;;;;17.50;7.43;;;;;;;;;;4981396;28;20046;-81
2022/03/14 12:37:39;;;;;;;26.10;9.13;;;;;;;;;;4998125;28;20109;-81
2022/03/14 12:40:06;;;;;;;26.42;9.15;;;;;;;;;;4995263;28;20446;-81
2022/03/14 12:42:59;;;;;;;29.58;9.45;;;;;;;;;;4965833;28;20032;-81
2022/03/14 12:45:32;;;;;;;29.45;9.40;;;;;;;;;;4957852;28;22970;-81
2022/03/14 12:48:05;;;;;;;30.27;10.30;;;;;;;;;;4981402;28;20073;-81
2022/03/14 12:50:43;;;;;;;24.75;9.10;;;;;;;;;;5000750;28;20018;-81
2022/03/14 12:53:28;;;;;;;25.75;9.93;;;;;;;;;;5002176;28;20041;-81
2022/03/14 12:55:55;;;;;;;28.50;10.23;;;;;;;;;;4986357;28;20029;-81
2022/03/14 12:58:22;;;;;;;25.95;11.20;;;;;;;;;;4983490;28;20041;-81
2022/03/14 13:00:49;;;;;;;28.80;11.52;;;;;;;;;;4984175;28;20034;-81
2022/03/14 13:03:23;;;;;;;30.45;10.55;;;;;;;;;;4981238;28;20116;-81
2022/03/14 13:05:50;;;;;;;37.25;11.93;;;;;;;;;;4998247;28;20503;-81
2022/03/14 13:08:16;;;;;;;31.63;11.48;;;;;;;;;;4986117;28;20052;-81
2022/03/14 13:10:43;;;;;;;28.83;10.88;;;;;;;;;;4984145;28;20037;-80
2022/03/14 13:13:10;;;;;;;28.65;10.85;;;;;;;;;;4999912;28;20034;-80
2022/03/14 13:15:37;;;;;;;25.20;10.48;;;;;;;;;;4983381;28;20053;-81
2022/03/14 13:18:15;;;;;;;29.40;11.18;;;;;;;;;;4980117;28;20110;-81
2022/03/14 13:20:41;;;;;;;29.38;11.30;;;;;;;;;;4994015;28;20078;-81
2022/03/14 13:23:17;;;;;;;34.30;10.73;;;;;;;;;;4980685;28;20054;-81
2022/03/14 13:25:48;;;;;;;28.38;11.05;;;;;;;;;;4999074;28;20069;-81
2022/03/14 13:28:34;;;;;;;22.83;8.43;;;;;;;;;;4984871;28;20022;-81
2022/03/14 13:31:01;;;;;;;21.48;6.50;;;;;;;;;;4976691;28;20030;-81
2022/03/14 13:33:34;;;;;;;24.45;8.00;;;;;;;;;;5003055;28;20038;-81
2022/03/14 13:36:11;;;;;;;33.90;8.63;;;;;;;;;;4981703;28;20042;-80
2022/03/14 13:38:39;;;;;;;21.85;7.60;;;;;;;;;;4982313;28;20045;-81
2022/03/14 13:41:09;;;;;;;24.38;7.00;;;;;;;;;;5000089;28;20045;-81
2022/03/14 13:43:36;;;;;;;24.10;7.28;;;;;;;;;;4999121;28;20026;-81
2022/03/14 13:46:21;;;;;;;26.80;6.88;;;;;;;;;;4980119;28;20049;-81
2022/03/14 13:48:51;;;;;;;24.00;7.05;;;;;;;;;;4981920;28;20084;-81
2022/03/14 13:51:19;;;;;;;22.85;7.80;;;;;;;;;;4999287;28;20030;-81
2022/03/14 13:53:46;;;;;;;31.55;8.60;;;;;;;;;;4985500;28;20454;-81
2022/03/14 13:56:12;;;;;;;24.05;7.07;;;;;;;;;;4983141;28;20056;-81
2022/03/14 13:58:39;;;;;;;20.05;7.65;;;;;;;;;;4997291;28;20045;-81
2022/03/14 14:01:05;;;;;;;24.15;6.97;;;;;;;;;;4998221;28;20026;-81
2022/03/14 14:03:32;;;;;;;27.77;8.30;;;;;;;;;;4979954;28;20477;-81
2022/03/14 14:06:14;;;;;;;18.30;5.97;;;;;;;;;;4984038;28;20068;-81
2022/03/14 14:08:41;;;;;;;16.83;5.95;;;;;;;;;;4996673;28;20133;-81
2022/03/14 14:11:07;;;;;;;14.68;5.10;;;;;;;;;;4999093;28;21691;-81
2022/03/14 14:13:47;;;;;;;20.33;7.13;;;;;;;;;;5001692;28;20052;-81
2022/03/14 14:16:17;;;;;;;16.67;5.32;;;;;;;;;;4975895;28;20482;-81
2022/03/14 14:18:44;;;;;;;19.65;7.47;;;;;;;;;;4996841;28;20120;-81
2022/03/14 14:21:17;;;;;;;16.40;5.72;;;;;;;;;;4981188;28;20033;-81
2022/03/14 14:23:43;;;;;;;15.85;5.90;;;;;;;;;;4998748;28;20061;-81
2022/03/14 14:26:09;;;;;;;15.60;5.88;;;;;;;;;;4991154;28;20548;-81
2022/03/14 14:28:38;;;;;;;19.02;5.88;;;;;;;;;;4985579;28;20080;-81
2022/03/14 14:31:04;;;;;;;15.20;4.60;;;;;;;;;;4996897;28;20113;-81
2022/03/14 14:33:32;;;;;;;20.92;6.03;;;;;;;;;;4993729;28;20026;-81